Belle Plaine, Iowa
Current Conditions -  °F | °C
As of 6:35 PM on Monday 22 Dec 2014 (Local Time) from KVTI Reporting Station
Haze Haze  
Wind Chill: 29°   Ceiling: 200
Heat Index: 37°   Visibility: 0.75mi
Dew Point: 35°   Wind: 10mph
Humidity: 95%   Direction: 110°ESE
Pressure: 29.53"   Gusts: NA
Location:  41.9°N, 92.28°W
Report Text: KVTI 230035Z AUTO 11009KT 3/4SM BR OVC002 03/02 A2953 RMK AO2 T00250017
Loading
Personal Weather Stations






























Interactive Weather Map New forecast layout! Learn more

10-Day Weather Forecast

Advertisements
Track Severe Weather on mobile